createdAt,value
2018-09-10T00:02:24.324Z,5.53
2018-09-10T00:04:53.698Z,5.90
2018-09-10T00:07:23.121Z,5.77
2018-09-10T00:09:53.484Z,5.80
2018-09-10T00:12:23.489Z,7.00
2018-09-10T00:14:53.471Z,5.80
2018-09-10T00:17:23.560Z,5.87
2018-09-10T00:22:22.346Z,5.47
2018-09-10T00:24:51.573Z,5.87
2018-09-10T00:27:21.362Z,6.13
2018-09-10T00:29:51.203Z,5.20
2018-09-10T00:32:21.103Z,5.53
2018-09-10T00:34:50.901Z,5.73
2018-09-10T00:37:20.797Z,5.80
2018-09-10T00:39:50.419Z,5.70
2018-09-10T00:42:20.479Z,5.90
2018-09-10T00:44:49.988Z,6.07
2018-09-10T00:47:19.995Z,5.63
2018-09-10T00:49:50.251Z,5.87
2018-09-10T00:52:20.376Z,6.17
2018-09-10T00:54:50.166Z,7.27
2018-09-10T00:57:20.036Z,6.40
2018-09-10T00:59:49.935Z,5.73
2018-09-10T01:02:20.927Z,5.63
2018-09-10T01:04:50.709Z,5.40
2018-09-10T01:07:20.542Z,5.30
2018-09-10T01:09:50.383Z,4.77
2018-09-10T01:12:19.790Z,5.57
2018-09-10T01:14:49.578Z,6.03
2018-09-10T01:17:20.145Z,5.60
2018-09-10T01:19:49.852Z,6.00
2018-09-10T01:22:19.810Z,5.27
2018-09-10T01:24:50.122Z,6.70
2018-09-10T01:27:19.983Z,7.43
2018-09-10T01:29:50.491Z,6.57
2018-09-10T01:32:20.321Z,5.43
2018-09-10T01:34:55.624Z,6.23
2018-09-10T01:37:26.376Z,6.23
2018-09-10T01:39:56.584Z,7.40
2018-09-10T01:42:27.962Z,7.40
2018-09-10T01:44:59.207Z,7.37
2018-09-10T01:47:29.855Z,6.10
2018-09-10T01:52:52.306Z,6.50
2018-09-10T01:55:22.629Z,6.53
2018-09-10T01:57:53.256Z,5.67
2018-09-10T02:00:22.788Z,5.40
2018-09-10T02:02:52.568Z,6.20
2018-09-10T02:05:22.328Z,5.97
2018-09-10T02:07:52.478Z,6.50
2018-09-10T02:10:23.063Z,6.47
2018-09-10T02:12:52.907Z,6.70
2018-09-10T02:15:22.663Z,5.57
2018-09-10T02:17:52.600Z,6.50
2018-09-10T02:20:22.078Z,6.07
2018-09-10T02:22:51.308Z,6.17
2018-09-10T02:28:08.205Z,6.77
2018-09-10T02:30:38.404Z,6.97
2018-09-10T02:33:09.730Z,6.77
2018-09-10T02:35:39.538Z,6.83
2018-09-10T02:38:09.658Z,7.30
2018-09-10T02:43:39.749Z,6.40
2018-09-10T02:46:09.379Z,6.73
2018-09-10T02:48:39.617Z,5.80
2018-09-10T02:51:09.813Z,5.80
2018-09-10T02:53:38.959Z,6.23
2018-09-10T02:56:08.618Z,6.27
2018-09-10T02:58:38.928Z,7.20
2018-09-10T03:01:08.770Z,7.17
2018-09-10T03:03:38.421Z,6.80
2018-09-10T03:06:08.115Z,7.53
2018-09-10T03:08:38.407Z,7.40
2018-09-10T03:11:08.516Z,7.33
2018-09-10T03:13:38.429Z,7.50
2018-09-10T03:16:07.752Z,7.60
2018-09-10T03:18:36.889Z,7.63
2018-09-10T03:21:06.579Z,8.63
2018-09-10T03:23:36.832Z,7.20
2018-09-10T03:28:35.264Z,8.20
2018-09-10T03:31:04.704Z,10.40
2018-09-10T03:33:35.375Z,9.13
2018-09-10T03:36:05.139Z,8.27
2018-09-10T03:38:34.587Z,9.00
2018-09-10T03:41:04.501Z,9.13
2018-09-10T03:43:35.297Z,7.50
2018-09-10T03:46:04.924Z,6.37
2018-09-10T03:48:34.664Z,6.90
2018-09-10T03:51:04.448Z,6.53
2018-09-10T03:53:35.025Z,5.77
2018-09-10T03:56:05.715Z,6.80
2018-09-10T03:58:36.039Z,7.17
2018-09-10T04:01:06.075Z,8.00
2018-09-10T04:03:35.430Z,7.33
2018-09-10T04:06:05.011Z,7.17
2018-09-10T04:08:36.677Z,7.80
2018-09-10T04:11:06.805Z,7.10
2018-09-10T04:13:35.523Z,7.23
2018-09-10T04:16:05.346Z,7.27
2018-09-10T04:18:35.738Z,6.20
2018-09-10T04:21:05.996Z,6.70
2018-09-10T04:23:35.258Z,6.73
2018-09-10T04:26:04.837Z,7.03
2018-09-10T04:28:35.163Z,6.50
2018-09-10T04:31:05.095Z,6.90
2018-09-10T04:33:34.738Z,7.73
2018-09-10T04:36:05.082Z,5.90
2018-09-10T04:38:35.428Z,6.10
2018-09-10T04:41:05.496Z,7.20
2018-09-10T04:43:35.779Z,7.60
2018-09-10T04:46:05.902Z,6.20
2018-09-10T04:48:35.381Z,7.55
2018-09-10T05:08:28.873Z,6.87
2018-09-10T05:10:57.966Z,6.97
2018-09-10T05:16:25.189Z,6.80
2018-09-10T05:18:54.830Z,6.97
2018-09-10T05:21:24.964Z,7.73
2018-09-10T05:23:54.236Z,7.03
2018-09-10T05:26:24.602Z,8.07
2018-09-10T05:28:54.366Z,6.80
2018-09-10T05:31:24.514Z,8.13
2018-09-10T05:33:54.480Z,7.40
2018-09-10T05:36:24.262Z,6.03
2018-09-10T05:38:53.828Z,7.60
2018-09-10T05:41:24.107Z,6.73
2018-09-10T05:43:53.477Z,7.03
2018-09-10T05:46:23.042Z,7.00
2018-09-10T05:48:52.798Z,6.33
2018-09-10T05:51:23.109Z,7.13
2018-09-10T05:53:53.088Z,6.70
2018-09-10T05:56:22.719Z,5.87
2018-09-10T05:58:51.775Z,6.20
2018-09-10T06:01:21.535Z,6.07
2018-09-10T06:03:51.211Z,6.50
2018-09-10T06:06:20.728Z,7.03
2018-09-10T06:08:50.733Z,6.10
2018-09-10T06:11:20.298Z,6.30
2018-09-10T06:13:49.916Z,5.90
2018-09-10T06:16:18.928Z,6.60
2018-09-10T06:18:48.123Z,6.47
2018-09-10T06:21:17.676Z,6.07
2018-09-10T06:23:47.225Z,7.53
2018-09-10T06:26:17.047Z,6.70
2018-09-10T06:28:47.235Z,6.70
2018-09-10T06:31:16.532Z,5.63
2018-09-10T06:33:45.852Z,5.50
2018-09-10T06:36:15.826Z,5.93
2018-09-10T06:38:45.749Z,5.37
2018-09-10T06:41:15.426Z,5.00
2018-09-10T06:43:44.815Z,5.30
2018-09-10T06:46:13.996Z,5.37
2018-09-10T06:48:44.494Z,5.60
2018-09-10T06:51:14.139Z,4.83
2018-09-10T06:53:44.058Z,4.97
2018-09-10T06:56:13.148Z,4.67
2018-09-10T06:58:43.682Z,4.50
2018-09-10T07:01:14.351Z,4.30
2018-09-10T07:03:44.219Z,4.20
2018-09-10T07:06:14.147Z,4.40
2018-09-10T07:08:44.553Z,5.40
2018-09-10T07:11:15.517Z,3.83
2018-09-10T07:13:45.820Z,4.37
2018-09-10T07:16:15.516Z,4.37
2018-09-10T07:18:44.911Z,4.30
2018-09-10T07:21:14.461Z,4.27
2018-09-10T07:23:44.826Z,4.53
2018-09-10T07:26:14.750Z,4.47
2018-09-10T07:28:44.316Z,4.20
2018-09-10T07:31:14.231Z,3.70
2018-09-10T07:33:43.290Z,4.53
2018-09-10T07:36:13.354Z,3.77
2018-09-10T07:38:42.890Z,3.57
2018-09-10T07:41:12.668Z,4.50
2018-09-10T07:43:42.246Z,3.40
2018-09-10T07:46:11.808Z,3.47
2018-09-10T07:48:40.410Z,3.47
2018-09-10T07:51:10.237Z,3.50
2018-09-10T07:59:20.028Z,3.60
2018-09-10T08:01:49.796Z,3.23
2018-09-10T08:04:18.627Z,3.20
2018-09-10T08:06:47.997Z,3.53
2018-09-10T08:09:18.107Z,3.23
2018-09-10T08:11:48.430Z,3.33
2018-09-10T08:14:18.163Z,4.10
2018-09-10T08:16:48.059Z,3.27
2018-09-10T08:19:17.137Z,2.57
2018-09-10T08:21:46.691Z,2.50
2018-09-10T08:24:16.730Z,2.90
2018-09-10T08:26:49.450Z,2.53
2018-09-10T08:29:18.855Z,2.57
2018-09-10T08:31:48.697Z,2.33
2018-09-10T08:34:18.210Z,2.90
2018-09-10T08:36:49.058Z,2.33
2018-09-10T08:39:19.210Z,3.13
2018-09-10T08:41:49.320Z,2.87
2018-09-10T08:44:19.409Z,1.80
2018-09-10T08:46:48.929Z,3.07
2018-09-10T08:49:18.178Z,3.03
2018-09-10T08:51:47.923Z,6.37
2018-09-10T08:54:17.325Z,3.53
2018-09-10T08:56:47.428Z,10.97
2018-09-10T08:59:16.831Z,2.83
2018-09-10T09:01:47.234Z,1.77
2018-09-10T09:04:17.497Z,2.40
2018-09-10T09:06:47.765Z,2.10
2018-09-10T09:09:17.667Z,2.17
2018-09-10T09:11:47.510Z,3.10
2018-09-10T09:14:17.553Z,2.33
2018-09-10T09:16:47.220Z,1.70
2018-09-10T09:19:16.498Z,2.23
2018-09-10T09:21:45.916Z,1.90
2018-09-10T09:24:16.384Z,1.73
2018-09-10T09:26:46.133Z,2.40
2018-09-10T09:29:15.813Z,2.10
2018-09-10T09:31:45.594Z,2.33
2018-09-10T09:34:15.122Z,1.70
2018-09-10T09:36:50.178Z,1.87
2018-09-10T09:39:25.052Z,2.60
2018-09-10T09:41:59.952Z,1.90
2018-09-10T09:44:34.420Z,2.67
2018-09-10T09:47:04.342Z,2.00
2018-09-10T09:49:33.939Z,1.60
2018-09-10T09:52:03.579Z,1.70
2018-09-10T09:54:33.372Z,2.30
2018-09-10T09:57:03.017Z,2.23
2018-09-10T09:59:32.177Z,2.13
2018-09-10T10:02:07.206Z,2.70
2018-09-10T10:04:36.626Z,3.00
2018-09-10T10:07:06.428Z,3.10
2018-09-10T10:09:36.385Z,3.33
2018-09-10T10:12:05.885Z,2.80
2018-09-10T10:14:35.697Z,2.90
2018-09-10T10:17:05.522Z,2.23
2018-09-10T10:19:35.381Z,3.33
2018-09-10T10:22:05.343Z,2.90
2018-09-10T10:24:35.616Z,2.40
2018-09-10T10:27:05.173Z,2.70
2018-09-10T10:29:34.687Z,2.93
2018-09-10T10:32:04.634Z,2.10
2018-09-10T10:34:34.218Z,2.27
2018-09-10T10:37:04.793Z,2.50
2018-09-10T10:39:33.894Z,2.70
2018-09-10T10:42:03.989Z,2.73
2018-09-10T10:44:33.863Z,2.00
2018-09-10T10:47:04.273Z,2.67
2018-09-10T10:49:34.036Z,2.00
2018-09-10T10:52:04.012Z,2.40
2018-09-10T10:54:33.634Z,2.03
2018-09-10T10:57:02.763Z,2.20
2018-09-10T10:59:32.291Z,2.13
2018-09-10T11:02:02.353Z,2.50
2018-09-10T11:04:31.701Z,2.90
2018-09-10T11:07:01.371Z,2.80
2018-09-10T11:09:30.799Z,3.87
2018-09-10T11:11:59.404Z,3.90
2018-09-10T11:14:29.135Z,4.70
2018-09-10T11:16:58.194Z,3.53
2018-09-10T11:19:28.366Z,4.63
2018-09-10T11:21:59.029Z,4.73
2018-09-10T11:24:28.717Z,4.80
2018-09-10T11:26:58.795Z,5.63
2018-09-10T11:29:28.992Z,5.30
2018-09-10T11:31:58.778Z,5.77
2018-09-10T11:34:28.652Z,5.10
2018-09-10T11:36:57.974Z,5.93
2018-09-10T11:39:27.958Z,3.67
2018-09-10T11:41:57.766Z,4.03
2018-09-10T11:44:27.586Z,4.50
2018-09-10T11:46:58.011Z,4.60
2018-09-10T11:49:27.625Z,4.50
2018-09-10T11:51:57.412Z,3.30
2018-09-10T11:54:26.383Z,3.70
2018-09-10T11:56:56.081Z,3.07
2018-09-10T11:59:26.731Z,3.30
2018-09-10T12:01:56.555Z,3.50
2018-09-10T12:04:26.351Z,3.50
2018-09-10T12:06:55.996Z,3.20
2018-09-10T12:09:25.505Z,3.90
2018-09-10T12:11:55.362Z,4.20
2018-09-10T12:14:25.714Z,3.10
2018-09-10T12:16:55.609Z,3.67
2018-09-10T12:19:24.827Z,4.33
2018-09-10T12:21:54.420Z,3.30
2018-09-10T12:24:24.083Z,3.70
2018-09-10T12:26:54.039Z,4.53
2018-09-10T12:29:23.806Z,4.07
2018-09-10T12:31:53.020Z,3.87
2018-09-10T12:34:38.483Z,4.03
2018-09-10T12:37:23.591Z,4.90
2018-09-10T12:39:53.660Z,3.30
2018-09-10T12:42:23.494Z,4.93
2018-09-10T12:44:54.425Z,3.40
2018-09-10T12:47:23.239Z,4.03
2018-09-10T12:49:52.291Z,5.40
2018-09-10T12:52:20.969Z,4.73
2018-09-10T12:54:50.068Z,4.00
2018-09-10T12:57:19.297Z,4.80
2018-09-10T12:59:48.697Z,3.80
2018-09-10T13:02:19.127Z,4.27
2018-09-10T13:04:48.880Z,3.60
2018-09-10T13:07:18.205Z,4.03
2018-09-10T13:09:47.364Z,4.03
2018-09-10T13:12:16.648Z,4.30
2018-09-10T13:14:46.122Z,6.03
2018-09-10T13:17:15.812Z,4.40
2018-09-10T13:19:45.426Z,4.67
2018-09-10T13:22:14.757Z,4.80
2018-09-10T13:24:43.708Z,5.00
2018-09-10T13:27:14.306Z,4.80
2018-09-10T13:29:43.660Z,5.50
2018-09-10T13:32:13.324Z,4.80
2018-09-10T13:34:42.427Z,4.47
2018-09-10T13:37:11.928Z,4.50
2018-09-10T13:39:41.221Z,4.17
2018-09-10T13:42:11.495Z,5.47
2018-09-10T13:44:41.241Z,4.77
2018-09-10T13:47:11.906Z,4.37
2018-09-10T13:49:41.209Z,4.33
2018-09-10T13:52:11.897Z,5.40
2018-09-10T13:54:41.536Z,4.23
2018-09-10T13:57:11.466Z,4.13
2018-09-10T13:59:41.414Z,4.20
2018-09-10T14:02:10.871Z,4.40
2018-09-10T14:04:41.508Z,4.03
2018-09-10T14:07:11.951Z,3.80
2018-09-10T14:09:42.896Z,4.00
2018-09-10T14:12:13.317Z,3.33
2018-09-10T14:14:45.326Z,3.43
2018-09-10T14:17:15.243Z,3.37
2018-09-10T14:19:44.745Z,3.27
2018-09-10T14:22:16.917Z,3.20
2018-09-10T14:24:46.604Z,4.23
2018-09-10T14:27:17.773Z,4.30
2018-09-10T14:29:48.578Z,2.83
2018-09-10T14:32:18.958Z,4.03
2018-09-10T14:34:48.860Z,3.27
2018-09-10T14:37:18.769Z,3.43
2018-09-10T14:39:48.883Z,3.07
2018-09-10T14:42:18.268Z,3.13
2018-09-10T14:44:48.437Z,3.23
2018-09-10T14:47:18.511Z,3.07
2018-09-10T14:49:48.218Z,2.90
2018-09-10T14:52:18.455Z,3.10
2018-09-10T14:54:49.384Z,3.27
2018-09-10T14:57:19.422Z,2.90
2018-09-10T14:59:49.305Z,3.13
2018-09-10T15:02:18.778Z,3.10
2018-09-10T15:04:48.624Z,2.50
2018-09-10T15:07:18.418Z,2.60
2018-09-10T15:09:47.994Z,3.40
2018-09-10T15:12:18.316Z,2.90
2018-09-10T15:14:48.649Z,3.70
2018-09-10T15:17:19.195Z,2.80
2018-09-10T15:19:49.290Z,2.83
2018-09-10T15:22:19.170Z,3.40
2018-09-10T15:24:49.403Z,2.77
2018-09-10T15:27:19.465Z,3.50
2018-09-10T15:29:49.000Z,3.20
2018-09-10T15:32:19.622Z,3.47
2018-09-10T15:34:49.525Z,3.10
2018-09-10T15:37:19.975Z,2.97
2018-09-10T15:39:49.858Z,3.03
2018-09-10T15:42:20.111Z,2.60
2018-09-10T15:44:50.430Z,3.60
2018-09-10T15:47:20.752Z,3.20
2018-09-10T15:49:50.893Z,2.80
2018-09-10T15:52:21.035Z,3.40
2018-09-10T15:54:50.926Z,3.07
2018-09-10T15:57:20.781Z,2.60
2018-09-10T15:59:50.399Z,2.77
2018-09-10T16:02:20.158Z,2.20
2018-09-10T16:04:50.183Z,1.83
2018-09-10T16:07:19.976Z,2.47
2018-09-10T16:09:50.224Z,2.23
2018-09-10T16:12:20.156Z,2.23
2018-09-10T16:14:49.620Z,2.47
2018-09-10T16:17:19.640Z,2.80
2018-09-10T16:19:50.096Z,2.40
2018-09-10T16:22:20.660Z,2.50
2018-09-10T16:24:50.421Z,2.80
2018-09-10T16:27:21.219Z,3.03
2018-09-10T16:29:51.658Z,3.00
2018-09-10T16:32:21.277Z,3.17
2018-09-10T16:34:51.487Z,2.63
2018-09-10T16:37:22.449Z,3.00
2018-09-10T16:39:52.344Z,3.13
2018-09-10T16:42:21.869Z,3.07
2018-09-10T16:44:52.495Z,2.70
2018-09-10T16:47:22.204Z,2.70
2018-09-10T16:49:52.244Z,3.00
2018-09-10T16:52:23.202Z,3.27
2018-09-10T16:54:53.604Z,2.67
2018-09-10T16:57:23.372Z,2.83
2018-09-10T16:59:53.164Z,3.10
2018-09-10T17:02:23.423Z,3.13
2018-09-10T17:04:53.695Z,3.10
2018-09-10T17:09:52.544Z,2.70
2018-09-10T17:12:22.471Z,2.80
2018-09-10T17:14:53.353Z,2.87
2018-09-10T17:17:23.246Z,3.23
2018-09-10T17:19:54.159Z,2.97
2018-09-10T17:22:24.215Z,2.63
2018-09-10T17:24:55.142Z,2.60
2018-09-10T17:27:26.040Z,2.60
2018-09-10T17:29:57.182Z,2.50
2018-09-10T17:32:27.022Z,2.85
2018-09-10T17:37:26.204Z,2.50
2018-09-10T17:47:25.702Z,3.37
2018-09-10T18:02:49.428Z,3.00
2018-09-10T18:12:48.513Z,3.90
2018-09-10T19:00:33.525Z,3.35
2018-09-10T19:08:04.808Z,3.30
2018-09-10T19:27:57.800Z,3.80
2018-09-10T19:50:23.579Z,3.20
2018-09-10T19:52:54.476Z,3.10
2018-09-10T23:44:58.049Z,3.50
